Nanuq — WDE6894 — position and weather

sailwx.info

Track history (hours):
 
Tides and Currents Weather Stations Pressure Air Temp Water Temp Dewpoint Dewpoint Depression Visibility Wind Speed Wind Dir Waves Ship Positions

Nanuq

Owner: Doncaster Mr, Glenn W, Raleigh, NC. More information available from US FCC via Universal Licensing System and Coast Guard Vessel Documentation Center.

Last reported at 2015-Mar-14 16:23 UTC. Time now 2015-Apr-02 00:07 UTC.
Position N 34°55' W 076°40'.
Warning: this ship's position is 18 days out of date.

Length 13 m.

Type: Sailing vessel. MMSI: 367386290.

Date/timePositionNaut miles runAvg speedWind from/ knotsBaromVisibWave heightAir tempDewpointWater temp
2015-Mar-14 16:23N 34°55' W 076°40'5 5.7
2015-Mar-14 15:33N 34°51' W 076°41'6 6.0
2015-Mar-14 14:33N 34°45' W 076°41'2 1.9
2015-Mar-14 13:31N 34°43' W 076°40'0 0.0
2015-Mar-14 12:31N 34°43' W 076°40'0 0.0
2015-Mar-14 11:31N 34°43' W 076°40'0 0.0
2015-Mar-14 10:31N 34°43' W 076°40'0 0.0
2015-Mar-14 09:31N 34°43' W 076°40'0 0.0
2015-Mar-14 08:31N 34°43' W 076°40'0 0.0
2015-Mar-14 07:31N 34°43' W 076°40'0 0.0
2015-Mar-14 06:31N 34°43' W 076°40'0 0.0
2015-Mar-14 05:31N 34°43' W 076°40'0 0.0
2015-Mar-14 04:31N 34°43' W 076°40'0 0.0
2015-Mar-14 03:31N 34°43' W 076°40'0 0.0
2015-Mar-14 02:31N 34°43' W 076°40'0 0.0
2015-Mar-14 01:31N 34°43' W 076°40'0 0.0
2015-Mar-14 00:31N 34°43' W 076°40'0 0.0
2015-Mar-13 23:31N 34°43' W 076°40'0 0.0
2015-Mar-13 22:31N 34°43' W 076°40'0 0.0
2015-Mar-13 21:33N 34°43' W 076°40'0 0.0
2015-Mar-13 20:33N 34°43' W 076°40'0 0.0
2015-Mar-13 19:33N 34°43' W 076°40'0 0.0
2015-Mar-13 18:33N 34°43' W 076°40'  
2015-Mar-08 15:33N 34°43' W 076°40'0 0.0
2015-Mar-08 00:32N 34°43' W 076°40'0 0.0
2015-Mar-07 23:32N 34°43' W 076°40'0 0.0
2015-Mar-07 22:32N 34°43' W 076°40'0 0.0
2015-Mar-07 21:32N 34°43' W 076°40'0 0.0
2015-Mar-07 20:32N 34°43' W 076°40'0 0.0
2015-Mar-07 19:32N 34°43' W 076°40'0 0.0
2015-Mar-07 18:32N 34°43' W 076°40'0 0.0
2015-Mar-07 17:32N 34°43' W 076°40'0 0.0
2015-Mar-07 16:32N 34°43' W 076°40'0 0.0
2015-Mar-07 15:33N 34°43' W 076°40'1 1.0
2015-Mar-07 14:33N 34°42' W 076°41'1 1.0
2015-Mar-07 13:31N 34°43' W 076°40'0 0.0
2015-Mar-07 12:31N 34°43' W 076°40'  
Track history (hours):
 
Tides and Currents Weather Stations Pressure Air Temp Water Temp Dewpoint Dewpoint Depression Visibility Wind Speed Wind Dir Waves Ship Positions

Nanuq

Owner: Doncaster Mr, Glenn W, Raleigh, NC. More information available from US FCC via Universal Licensing System and Coast Guard Vessel Documentation Center.

Last reported at 2015-Mar-14 16:23 UTC. Time now 2015-Apr-02 00:07 UTC.
Position N 34°55' W 076°40'.
Warning: this ship's position is 18 days out of date.

Length 13 m.

Type: Sailing vessel. MMSI: 367386290.

Date/timePositionNaut miles runAvg speedWind from/ knotsBaromVisibWave heightAir tempDewpointWater temp
2015-Mar-14 16:23N 34°55' W 076°40'5 5.7
2015-Mar-14 15:33N 34°51' W 076°41'6 6.0
2015-Mar-14 14:33N 34°45' W 076°41'2 1.9
2015-Mar-14 13:31N 34°43' W 076°40'0 0.0
2015-Mar-14 12:31N 34°43' W 076°40'0 0.0
2015-Mar-14 11:31N 34°43' W 076°40'0 0.0
2015-Mar-14 10:31N 34°43' W 076°40'0 0.0
2015-Mar-14 09:31N 34°43' W 076°40'0 0.0
2015-Mar-14 08:31N 34°43' W 076°40'0 0.0
2015-Mar-14 07:31N 34°43' W 076°40'0 0.0
2015-Mar-14 06:31N 34°43' W 076°40'0 0.0
2015-Mar-14 05:31N 34°43' W 076°40'0 0.0
2015-Mar-14 04:31N 34°43' W 076°40'0 0.0
2015-Mar-14 03:31N 34°43' W 076°40'0 0.0
2015-Mar-14 02:31N 34°43' W 076°40'0 0.0
2015-Mar-14 01:31N 34°43' W 076°40'0 0.0
2015-Mar-14 00:31N 34°43' W 076°40'0 0.0
2015-Mar-13 23:31N 34°43' W 076°40'0 0.0
2015-Mar-13 22:31N 34°43' W 076°40'0 0.0
2015-Mar-13 21:33N 34°43' W 076°40'0 0.0
2015-Mar-13 20:33N 34°43' W 076°40'0 0.0
2015-Mar-13 19:33N 34°43' W 076°40'0 0.0
2015-Mar-13 18:33N 34°43' W 076°40'  
2015-Mar-08 15:33N 34°43' W 076°40'0 0.0
2015-Mar-08 00:32N 34°43' W 076°40'0 0.0
2015-Mar-07 23:32N 34°43' W 076°40'0 0.0
2015-Mar-07 22:32N 34°43' W 076°40'0 0.0
2015-Mar-07 21:32N 34°43' W 076°40'0 0.0
2015-Mar-07 20:32N 34°43' W 076°40'0 0.0
2015-Mar-07 19:32N 34°43' W 076°40'0 0.0
2015-Mar-07 18:32N 34°43' W 076°40'0 0.0
2015-Mar-07 17:32N 34°43' W 076°40'0 0.0
2015-Mar-07 16:32N 34°43' W 076°40'0 0.0
2015-Mar-07 15:33N 34°43' W 076°40'1 1.0
2015-Mar-07 14:33N 34°42' W 076°41'1 1.0
2015-Mar-07 13:31N 34°43' W 076°40'0 0.0
2015-Mar-07 12:31N 34°43' W 076°40'  

Dump ship's entire track history